Time;durP1;ratioP1;P1;durP2;ratioP2;P2;SDS_P1;SDS_P2;PMS_P1;PMS_P2;Temp;Humidity;BMP_temperature;BMP_pressure;BME280_temperature;BME280_humidity;BME280_pressure;Samples;Min_cycle;Max_cycle;Signal;HPM_P1;HPM_P2
2022/09/20 00:01:19;;;;;;;8.27;3.20;;;;;;;;;;5041190;28;20382;-61
2022/09/20 00:03:47;;;;;;;9.18;2.97;;;;;;;;;;5028737;28;20030;-61
2022/09/20 00:06:19;;;;;;;10.27;2.97;;;;;;;;;;5045958;28;20466;-61
2022/09/20 00:08:45;;;;;;;10.88;3.03;;;;;;;;;;5026958;28;20638;-60
2022/09/20 00:11:16;;;;;;;11.00;2.95;;;;;;;;;;5048503;28;20045;-60
2022/09/20 00:13:42;;;;;;;;;;;;;;;;;;5043409;28;20065;-60
2022/09/20 00:16:12;;;;;;;14.25;3.03;;;;;;;;;;5052717;28;19975;-60
2022/09/20 00:18:39;;;;;;;8.95;2.80;;;;;;;;;;5015132;28;20041;-61
2022/09/20 00:21:05;;;;;;;11.73;3.03;;;;;;;;;;5010105;28;20034;-62
2022/09/20 00:23:31;;;;;;;10.30;3.20;;;;;;;;;;5013849;28;20068;-60
2022/09/20 00:25:59;;;;;;;9.00;2.85;;;;;;;;;;5013070;28;20025;-60
2022/09/20 00:28:26;;;;;;;14.75;2.60;;;;;;;;;;5043312;28;20060;-60
2022/09/20 00:30:52;;;;;;;15.63;3.38;;;;;;;;;;5028907;28;20433;-60
2022/09/20 00:33:18;;;;;;;7.45;2.67;;;;;;;;;;5012767;28;20045;-62
2022/09/20 00:35:45;;;;;;;9.63;2.70;;;;;;;;;;5028976;28;20073;-60
2022/09/20 00:38:12;;;;;;;7.38;2.65;;;;;;;;;;5032044;28;20033;-60
2022/09/20 00:40:38;;;;;;;10.90;3.33;;;;;;;;;;5027022;28;20116;-61
2022/09/20 00:43:04;;;;;;;12.50;3.33;;;;;;;;;;5029867;28;20037;-61
2022/09/20 00:45:29;;;;;;;11.05;2.90;;;;;;;;;;5031543;28;20438;-61
2022/09/20 00:48:10;;;;;;;10.85;3.10;;;;;;;;;;5029210;28;20044;-62
2022/09/20 00:50:42;;;;;;;8.32;2.83;;;;;;;;;;5030717;28;20037;-62
2022/09/20 00:53:17;;;;;;;9.88;3.17;;;;;;;;;;5039312;28;20405;-61
2022/09/20 00:56:00;;;;;;;11.70;3.05;;;;;;;;;;5018694;28;20033;-60
2022/09/20 00:58:28;;;;;;;11.57;3.05;;;;;;;;;;5030942;28;20033;-60
2022/09/20 01:00:55;;;;;;;13.80;3.55;;;;;;;;;;5035651;28;20104;-60
2022/09/20 01:03:22;;;;;;;19.92;3.40;;;;;;;;;;5032077;28;20041;-60
2022/09/20 01:05:50;;;;;;;10.93;3.47;;;;;;;;;;5029842;28;20047;-60
2022/09/20 01:08:16;;;;;;;12.18;3.50;;;;;;;;;;5029554;28;20041;-60
2022/09/20 01:10:42;;;;;;;8.35;3.10;;;;;;;;;;5030062;28;20539;-61
2022/09/20 01:13:08;;;;;;;11.52;3.28;;;;;;;;;;5027713;28;20034;-60
2022/09/20 01:15:37;;;;;;;9.63;3.17;;;;;;;;;;5025763;28;20032;-60
2022/09/20 01:18:05;;;;;;;11.18;3.42;;;;;;;;;;5026530;28;20038;-61
2022/09/20 01:20:33;;;;;;;11.05;3.58;;;;;;;;;;5039662;28;20040;-61
2022/09/20 01:23:13;;;;;;;8.18;3.28;;;;;;;;;;5037218;28;20786;-61
2022/09/20 01:26:14;;;;;;;10.38;3.00;;;;;;;;;;5025828;28;20037;-61
2022/09/20 01:28:42;;;;;;;13.10;3.28;;;;;;;;;;5032876;28;20086;-61
2022/09/20 01:31:19;;;;;;;9.18;3.33;;;;;;;;;;5029536;28;20103;-61
2022/09/20 01:33:50;;;;;;;9.43;3.33;;;;;;;;;;5028181;28;20033;-60
2022/09/20 01:36:33;;;;;;;8.88;3.13;;;;;;;;;;5039212;28;20033;-61
2022/09/20 01:39:13;;;;;;;14.98;3.70;;;;;;;;;;5032292;28;20025;-61
2022/09/20 01:41:56;;;;;;;8.30;3.60;;;;;;;;;;5035555;28;20041;-62
2022/09/20 01:44:54;;;;;;;10.63;3.30;;;;;;;;;;5028152;28;20048;-62
2022/09/20 01:47:31;;;;;;;13.35;3.22;;;;;;;;;;4997612;28;20096;-61
2022/09/20 01:50:03;;;;;;;11.55;3.42;;;;;;;;;;5027732;28;20033;-61
2022/09/20 01:52:43;;;;;;;11.20;3.72;;;;;;;;;;5029887;28;20026;-61
2022/09/20 01:55:47;;;;;;;14.73;3.38;;;;;;;;;;5036350;28;20438;-61
2022/09/20 01:58:34;;;;;;;14.32;3.42;;;;;;;;;;5029976;28;20049;-61
2022/09/20 02:01:22;;;;;;;8.73;3.38;;;;;;;;;;5032675;28;20045;-61
2022/09/20 02:04:10;;;;;;;8.60;3.30;;;;;;;;;;5002295;28;20025;-61
2022/09/20 02:07:12;;;;;;;8.75;3.15;;;;;;;;;;5027473;28;20084;-61
2022/09/20 02:09:46;;;;;;;9.65;2.85;;;;;;;;;;5039787;28;20032;-62
2022/09/20 02:12:37;;;;;;;10.32;3.20;;;;;;;;;;5031295;28;20037;-60
2022/09/20 02:15:15;;;;;;;9.05;3.40;;;;;;;;;;5024708;28;20033;-61
2022/09/20 02:18:03;;;;;;;15.57;3.20;;;;;;;;;;5027987;28;20037;-62
2022/09/20 02:20:53;;;;;;;10.32;3.03;;;;;;;;;;5008542;28;20041;-61
2022/09/20 02:23:31;;;;;;;14.40;3.73;;;;;;;;;;5029304;28;20116;-61
2022/09/20 02:26:27;;;;;;;13.30;3.33;;;;;;;;;;5038810;28;20456;-61
2022/09/20 02:29:37;;;;;;;13.32;3.55;;;;;;;;;;5021714;28;20038;-61
2022/09/20 02:32:27;;;;;;;7.72;3.10;;;;;;;;;;5013097;28;20134;-61
2022/09/20 02:34:53;;;;;;;14.00;3.95;;;;;;;;;;5027458;28;20042;-61
2022/09/20 02:37:37;;;;;;;9.35;3.60;;;;;;;;;;5011395;28;20095;-61
2022/09/20 02:40:39;;;;;;;13.20;4.20;;;;;;;;;;5034088;28;20628;-61
2022/09/20 02:43:16;;;;;;;15.20;3.65;;;;;;;;;;5024574;28;20081;-60
2022/09/20 02:46:09;;;;;;;14.10;4.47;;;;;;;;;;5017130;28;20025;-62
2022/09/20 02:48:55;;;;;;;9.45;3.83;;;;;;;;;;5033887;28;20030;-61
2022/09/20 02:51:45;;;;;;;13.60;3.88;;;;;;;;;;5039824;28;20074;-60
2022/09/20 02:54:25;;;;;;;14.53;4.23;;;;;;;;;;5017922;28;20473;-60
2022/09/20 02:57:17;;;;;;;11.60;4.40;;;;;;;;;;5031092;28;20036;-60
2022/09/20 02:59:49;;;;;;;14.80;4.32;;;;;;;;;;5003140;28;20049;-62
2022/09/20 03:02:21;;;;;;;13.63;4.30;;;;;;;;;;5023664;28;20044;-60
2022/09/20 03:04:52;;;;;;;11.55;4.10;;;;;;;;;;5023465;28;20116;-59
2022/09/20 03:07:40;;;;;;;11.05;4.40;;;;;;;;;;5030139;28;20029;-60
2022/09/20 03:10:14;;;;;;;13.05;4.10;;;;;;;;;;5032915;28;20071;-61
2022/09/20 03:13:06;;;;;;;12.05;4.20;;;;;;;;;;5032577;28;20030;-61
2022/09/20 03:15:43;;;;;;;11.18;4.10;;;;;;;;;;5030878;28;20108;-60
2022/09/20 03:18:16;;;;;;;18.45;4.40;;;;;;;;;;5031493;28;20033;-59
2022/09/20 03:21:00;;;;;;;11.80;4.40;;;;;;;;;;5012944;28;20178;-62
2022/09/20 03:23:43;;;;;;;13.60;4.25;;;;;;;;;;5023383;28;20045;-61
2022/09/20 03:26:36;;;;;;;9.50;4.30;;;;;;;;;;4997031;28;20034;-61
2022/09/20 03:29:12;;;;;;;13.07;4.60;;;;;;;;;;4998387;28;20038;-61
2022/09/20 03:32:12;;;;;;;17.70;4.65;;;;;;;;;;5008436;28;20021;-61
2022/09/20 03:34:54;;;;;;;18.67;4.93;;;;;;;;;;5033913;28;20034;-60
2022/09/20 03:37:43;;;;;;;13.20;4.60;;;;;;;;;;5011174;28;20037;-60
2022/09/20 03:40:57;;;;;;;17.55;5.18;;;;;;;;;;5015749;28;20164;-61
2022/09/20 03:43:56;;;;;;;15.15;4.88;;;;;;;;;;4987970;28;20046;-61
2022/09/20 03:46:27;;;;;;;10.35;4.53;;;;;;;;;;4999129;28;20037;-61
2022/09/20 03:48:52;;;;;;;;;;;;;;;;;;5003978;28;20069;-59
2022/09/20 03:51:28;;;;;;;10.93;4.50;;;;;;;;;;5003303;28;20366;-61
2022/09/20 03:54:27;;;;;;;10.93;4.22;;;;;;;;;;5011042;28;20038;-62
2022/09/20 03:57:14;;;;;;;14.05;4.40;;;;;;;;;;5014970;28;20574;-61
2022/09/20 03:59:58;;;;;;;11.30;4.60;;;;;;;;;;5015209;28;20732;-61
2022/09/20 04:02:35;;;;;;;10.85;4.38;;;;;;;;;;5027421;28;20065;-61
2022/09/20 04:05:13;;;;;;;18.65;5.70;;;;;;;;;;5011895;28;20568;-61
2022/09/20 04:07:53;;;;;;;22.60;6.80;;;;;;;;;;5004045;28;20044;-60
2022/09/20 04:10:28;;;;;;;11.98;5.65;;;;;;;;;;5030463;28;20033;-60
2022/09/20 04:13:14;;;;;;;15.65;5.40;;;;;;;;;;5009951;28;20414;-60
2022/09/20 04:16:03;;;;;;;11.35;5.35;;;;;;;;;;4999212;28;20046;-60
2022/09/20 04:19:03;;;;;;;10.65;4.75;;;;;;;;;;5012756;28;20428;-61
2022/09/20 04:21:55;;;;;;;17.52;5.68;;;;;;;;;;5020857;28;20470;-60
2022/09/20 04:24:41;;;;;;;18.83;5.97;;;;;;;;;;5000640;28;20038;-61
2022/09/20 04:27:23;;;;;;;17.05;5.68;;;;;;;;;;5009815;28;20113;-60
2022/09/20 04:30:04;;;;;;;16.30;5.82;;;;;;;;;;5021166;28;20038;-61
2022/09/20 04:33:19;;;;;;;23.25;6.40;;;;;;;;;;5014184;28;20391;-60
2022/09/20 04:38:34;;;;;;;16.42;6.45;;;;;;;;;;4998684;28;20036;-61
2022/09/20 04:41:33;;;;;;;17.27;6.85;;;;;;;;;;5018173;28;20114;-61
2022/09/20 04:44:01;;;;;;;19.98;6.53;;;;;;;;;;5029569;28;20048;-60
2022/09/20 04:46:45;;;;;;;14.43;6.47;;;;;;;;;;5031070;28;20434;-60
2022/09/20 04:49:14;;;;;;;21.00;6.72;;;;;;;;;;5028613;28;20033;-60
2022/09/20 04:52:11;;;;;;;13.05;6.32;;;;;;;;;;5026314;28;20485;-61
2022/09/20 04:55:16;;;;;;;19.08;6.30;;;;;;;;;;5025755;28;20057;-62
2022/09/20 04:57:56;;;;;;;19.30;7.20;;;;;;;;;;5027717;28;20433;-61
2022/09/20 05:00:23;;;;;;;15.82;6.75;;;;;;;;;;5029089;28;20037;-60
2022/09/20 05:03:08;;;;;;;16.15;6.63;;;;;;;;;;5032342;28;20037;-62
2022/09/20 05:05:43;;;;;;;18.58;7.35;;;;;;;;;;5015330;28;20037;-60
2022/09/20 05:08:45;;;;;;;20.95;7.40;;;;;;;;;;5023297;28;20031;-61
2022/09/20 05:11:31;;;;;;;15.18;6.30;;;;;;;;;;4968742;28;20467;-60
2022/09/20 05:14:21;;;;;;;18.95;7.03;;;;;;;;;;5029944;28;20045;-60
2022/09/20 05:17:11;;;;;;;22.08;6.80;;;;;;;;;;5029761;28;20036;-60
2022/09/20 05:20:00;;;;;;;16.23;6.30;;;;;;;;;;5019014;28;20053;-60
2022/09/20 05:22:50;;;;;;;18.58;7.10;;;;;;;;;;5008580;28;20029;-71
2022/09/20 05:25:37;;;;;;;14.23;6.07;;;;;;;;;;5024104;28;20084;-71
2022/09/20 05:28:14;;;;;;;15.60;6.53;;;;;;;;;;5002501;28;20073;-59
2022/09/20 05:30:45;;;;;;;11.95;5.90;;;;;;;;;;5009451;28;20526;-59
2022/09/20 05:33:19;;;;;;;;;;;;;;;;;;5011449;28;20034;-61
2022/09/20 05:36:24;;;;;;;21.63;6.50;;;;;;;;;;5012688;28;19917;-61
2022/09/20 05:38:53;;;;;;;15.43;6.38;;;;;;;;;;5015624;28;20121;-64
2022/09/20 05:41:22;;;;;;;14.98;6.05;;;;;;;;;;5026427;28;20030;-62
2022/09/20 05:43:50;;;;;;;15.80;6.22;;;;;;;;;;5011136;28;20104;-63
2022/09/20 05:46:21;;;;;;;17.80;6.60;;;;;;;;;;5009720;28;20037;-62
2022/09/20 05:49:01;;;;;;;;;;;;;;;;;;5002224;28;20109;-61
2022/09/20 05:51:50;;;;;;;18.92;6.47;;;;;;;;;;5012462;28;19920;-61
2022/09/20 05:54:43;;;;;;;16.80;6.75;;;;;;;;;;4991741;28;20030;-61
2022/09/20 05:57:41;;;;;;;19.02;6.80;;;;;;;;;;5004486;28;20058;-61
2022/09/20 06:00:19;;;;;;;14.68;6.90;;;;;;;;;;5002686;28;20034;-63
2022/09/20 06:03:09;;;;;;;15.90;6.82;;;;;;;;;;5004516;28;20381;-63
2022/09/20 06:06:02;;;;;;;17.15;6.85;;;;;;;;;;5028437;28;20042;-61
2022/09/20 06:08:45;;;;;;;15.30;7.65;;;;;;;;;;5028549;28;20029;-62
2022/09/20 06:11:21;;;;;;;21.25;7.78;;;;;;;;;;5030227;28;20029;-63
2022/09/20 06:14:16;;;;;;;16.88;6.95;;;;;;;;;;5028156;28;20061;-62
2022/09/20 06:17:04;;;;;;;24.90;8.85;;;;;;;;;;5018255;28;20026;-62
2022/09/20 06:19:51;;;;;;;15.93;6.80;;;;;;;;;;5012047;28;20061;-62
2022/09/20 06:22:30;;;;;;;19.45;8.10;;;;;;;;;;5029382;28;20033;-62
2022/09/20 06:25:03;;;;;;;22.17;8.18;;;;;;;;;;5016304;28;20034;-61
2022/09/20 06:27:52;;;;;;;22.80;8.30;;;;;;;;;;5028222;28;20104;-61
2022/09/20 06:30:33;;;;;;;23.35;8.45;;;;;;;;;;5031226;28;20083;-63
2022/09/20 06:33:09;;;;;;;20.55;8.68;;;;;;;;;;4994653;28;20037;-62
2022/09/20 06:35:43;;;;;;;15.15;7.55;;;;;;;;;;5002884;28;20483;-62
2022/09/20 06:41:27;;;;;;;;;;;;;;;;;;5015033;28;20033;-60
2022/09/20 06:43:57;;;;;;;19.85;7.32;;;;;;;;;;5025456;28;20005;-64
2022/09/20 06:46:23;;;;;;;31.63;8.65;;;;;;;;;;5008787;28;20037;-64
2022/09/20 06:48:50;;;;;;;24.42;8.10;;;;;;;;;;5034381;28;20044;-64
2022/09/20 06:51:15;;;;;;;23.85;8.73;;;;;;;;;;5032108;28;20065;-64
2022/09/20 06:53:41;;;;;;;21.40;7.97;;;;;;;;;;5008432;28;20085;-63
2022/09/20 06:56:16;;;;;;;20.70;7.95;;;;;;;;;;5010442;28;20489;-61
2022/09/20 06:58:42;;;;;;;23.00;8.10;;;;;;;;;;4995361;28;20026;-60
2022/09/20 07:01:07;;;;;;;24.23;8.02;;;;;;;;;;4996408;28;20035;-61
2022/09/20 07:03:33;;;;;;;21.75;7.78;;;;;;;;;;5023050;28;20026;-60
2022/09/20 07:05:59;;;;;;;23.30;7.25;;;;;;;;;;4997668;28;20387;-61
2022/09/20 07:08:25;;;;;;;23.25;6.70;;;;;;;;;;5034193;28;20029;-61
2022/09/20 07:10:51;;;;;;;19.77;6.88;;;;;;;;;;5033710;28;20033;-63
2022/09/20 07:13:18;;;;;;;14.57;6.38;;;;;;;;;;5030519;28;20394;-62
2022/09/20 07:15:43;;;;;;;20.05;6.78;;;;;;;;;;5013781;28;20096;-61
2022/09/20 07:18:08;;;;;;;15.75;6.65;;;;;;;;;;5029521;28;20534;-61
2022/09/20 07:20:34;;;;;;;21.35;7.07;;;;;;;;;;4993536;28;20507;-61
2022/09/20 07:22:59;;;;;;;19.58;6.90;;;;;;;;;;4991166;28;20030;-60
2022/09/20 07:25:25;;;;;;;16.50;6.38;;;;;;;;;;5009084;28;20481;-60
2022/09/20 07:27:50;;;;;;;16.33;7.13;;;;;;;;;;5012362;28;20116;-61
2022/09/20 07:30:18;;;;;;;16.67;6.53;;;;;;;;;;5020145;28;20039;-61
2022/09/20 07:32:43;;;;;;;22.83;6.93;;;;;;;;;;5002230;28;20493;-60
2022/09/20 07:35:10;;;;;;;17.88;7.43;;;;;;;;;;5012677;28;20049;-60
2022/09/20 07:37:36;;;;;;;16.30;6.90;;;;;;;;;;5031488;28;20037;-61
2022/09/20 07:40:04;;;;;;;26.92;7.07;;;;;;;;;;5030552;28;20458;-60
2022/09/20 07:42:29;;;;;;;25.48;7.57;;;;;;;;;;5016322;28;20041;-61
2022/09/20 07:44:55;;;;;;;16.27;6.50;;;;;;;;;;5031847;28;20051;-61
2022/09/20 07:47:22;;;;;;;17.45;6.53;;;;;;;;;;5030723;28;20029;-60
2022/09/20 07:49:47;;;;;;;17.52;6.47;;;;;;;;;;5031794;28;20141;-60
2022/09/20 07:52:13;;;;;;;14.80;6.20;;;;;;;;;;5022255;28;20266;-61
2022/09/20 07:54:38;;;;;;;17.15;6.07;;;;;;;;;;5013997;28;20041;-62
2022/09/20 07:57:04;;;;;;;18.38;5.93;;;;;;;;;;5031038;28;20536;-61
2022/09/20 07:59:30;;;;;;;13.82;5.75;;;;;;;;;;5010587;28;20063;-61
2022/09/20 08:01:57;;;;;;;16.45;5.95;;;;;;;;;;5011035;28;20070;-60
2022/09/20 08:04:23;;;;;;;12.23;5.57;;;;;;;;;;5012521;28;20113;-62
2022/09/20 08:06:48;;;;;;;14.75;5.35;;;;;;;;;;5007120;28;20111;-63
2022/09/20 08:09:13;;;;;;;14.20;6.20;;;;;;;;;;5021228;28;20470;-61
2022/09/20 08:11:41;;;;;;;14.57;5.80;;;;;;;;;;5031532;28;20076;-61
2022/09/20 08:14:07;;;;;;;11.57;5.40;;;;;;;;;;5032428;28;20060;-61
2022/09/20 08:16:38;;;;;;;17.90;5.90;;;;;;;;;;5027182;28;20040;-61
2022/09/20 08:19:03;;;;;;;15.57;5.88;;;;;;;;;;5019606;28;20463;-61
2022/09/20 08:21:31;;;;;;;12.57;5.00;;;;;;;;;;5021778;28;20091;-61
2022/09/20 08:23:57;;;;;;;14.25;5.25;;;;;;;;;;5006642;28;20396;-61
2022/09/20 08:26:24;;;;;;;11.55;4.78;;;;;;;;;;5021260;28;20497;-61
2022/09/20 08:28:55;;;;;;;12.57;4.78;;;;;;;;;;5030083;28;20374;-61
2022/09/20 08:31:22;;;;;;;;;;;;;;;;;;5010552;28;20041;-62
2022/09/20 08:33:49;;;;;;;14.15;5.30;;;;;;;;;;5013513;28;20482;-61
2022/09/20 08:36:17;;;;;;;13.38;4.45;;;;;;;;;;5019611;28;20033;-62
2022/09/20 08:38:43;;;;;;;9.00;3.65;;;;;;;;;;5013332;28;20038;-62
2022/09/20 08:41:20;;;;;;;8.93;3.70;;;;;;;;;;5028723;28;20037;-62
2022/09/20 08:44:11;;;;;;;8.85;3.78;;;;;;;;;;5011907;28;20041;-61
2022/09/20 08:47:19;;;;;;;10.15;3.95;;;;;;;;;;5012491;28;20037;-61
2022/09/20 08:49:44;;;;;;;11.27;3.88;;;;;;;;;;4989471;28;20121;-61
2022/09/20 08:52:16;;;;;;;10.30;3.70;;;;;;;;;;5010540;28;20694;-62
2022/09/20 08:54:42;;;;;;;6.05;2.63;;;;;;;;;;5011629;28;20120;-62
2022/09/20 08:57:16;;;;;;;10.82;2.60;;;;;;;;;;5011005;28;20060;-63
2022/09/20 08:59:43;;;;;;;8.68;2.80;;;;;;;;;;5026137;28;20412;-62
2022/09/20 09:02:16;;;;;;;8.38;2.80;;;;;;;;;;5031028;28;20386;-64
2022/09/20 09:04:43;;;;;;;13.85;3.03;;;;;;;;;;5008629;28;20049;-62
2022/09/20 09:07:12;;;;;;;9.35;2.70;;;;;;;;;;4991075;28;20057;-61
2022/09/20 09:09:40;;;;;;;10.02;2.70;;;;;;;;;;4994543;28;20356;-62
2022/09/20 09:12:12;;;;;;;7.22;2.15;;;;;;;;;;4991455;28;20038;-61
2022/09/20 09:14:47;;;;;;;8.07;2.15;;;;;;;;;;5012043;28;20062;-62
2022/09/20 09:17:16;;;;;;;9.20;2.00;;;;;;;;;;5010174;28;20069;-64
2022/09/20 09:19:56;;;;;;;7.97;1.92;;;;;;;;;;5022288;28;20048;-62
2022/09/20 09:22:38;;;;;;;8.20;1.98;;;;;;;;;;5031544;28;20026;-60
2022/09/20 09:25:11;;;;;;;8.13;2.17;;;;;;;;;;5029625;28;20493;-62
2022/09/20 09:27:49;;;;;;;5.38;2.05;;;;;;;;;;5031084;28;20029;-63
2022/09/20 09:30:22;;;;;;;7.38;2.42;;;;;;;;;;5010158;28;20124;-63
2022/09/20 09:32:47;;;;;;;10.55;2.03;;;;;;;;;;5023328;28;20038;-63
2022/09/20 09:35:31;;;;;;;6.90;2.00;;;;;;;;;;5030205;28;20026;-63
2022/09/20 09:38:01;;;;;;;5.65;2.20;;;;;;;;;;5026757;28;20120;-63
2022/09/20 09:40:28;;;;;;;7.13;2.20;;;;;;;;;;5026420;28;20136;-61
2022/09/20 09:43:00;;;;;;;6.28;2.40;;;;;;;;;;5022757;28;20274;-61
2022/09/20 09:45:50;;;;;;;7.53;2.30;;;;;;;;;;5031215;28;20025;-62
2022/09/20 09:48:29;;;;;;;11.00;2.50;;;;;;;;;;4990493;28;20038;-62
2022/09/20 09:51:09;;;;;;;6.55;2.60;;;;;;;;;;5010271;28;20034;-62
2022/09/20 09:53:35;;;;;;;10.63;2.20;;;;;;;;;;5027535;28;20083;-62
2022/09/20 09:56:20;;;;;;;8.73;2.42;;;;;;;;;;5011703;28;20077;-61
2022/09/20 09:59:09;;;;;;;5.72;1.73;;;;;;;;;;5011688;28;20046;-61
2022/09/20 10:01:38;;;;;;;6.78;1.88;;;;;;;;;;4995405;28;20057;-62
2022/09/20 10:04:41;;;;;;;7.78;2.03;;;;;;;;;;4989388;28;20022;-60
2022/09/20 10:07:25;;;;;;;5.80;1.80;;;;;;;;;;5009523;28;20096;-61
2022/09/20 10:10:00;;;;;;;6.22;1.98;;;;;;;;;;5022295;28;20036;-61
2022/09/20 10:13:03;;;;;;;6.68;1.90;;;;;;;;;;5011365;28;20402;-61
2022/09/20 10:15:39;;;;;;;5.60;1.65;;;;;;;;;;5022602;28;20040;-60
2022/09/20 10:18:22;;;;;;;5.30;1.77;;;;;;;;;;5029345;28;20042;-62
2022/09/20 10:21:06;;;;;;;6.97;1.73;;;;;;;;;;5038105;28;20366;-62
2022/09/20 10:23:50;;;;;;;7.15;1.90;;;;;;;;;;5049503;28;20037;-61
2022/09/20 10:26:54;;;;;;;5.65;1.45;;;;;;;;;;5026508;28;20543;-63
2022/09/20 10:29:29;;;;;;;4.80;1.33;;;;;;;;;;5036337;28;20037;-60
2022/09/20 10:32:13;;;;;;;6.68;1.55;;;;;;;;;;5050010;28;20111;-61
2022/09/20 10:34:41;;;;;;;5.07;1.70;;;;;;;;;;5041147;28;20056;-62
2022/09/20 10:37:33;;;;;;;3.25;1.60;;;;;;;;;;5030726;28;20108;-61
2022/09/20 10:40:14;;;;;;;2.53;1.40;;;;;;;;;;5017478;28;20387;-62
2022/09/20 10:43:14;;;;;;;3.47;1.63;;;;;;;;;;5030114;28;20030;-61
2022/09/20 10:46:09;;;;;;;4.50;1.40;;;;;;;;;;5012919;28;20046;-60
2022/09/20 10:48:50;;;;;;;4.35;1.50;;;;;;;;;;5014218;28;20291;-61
2022/09/20 10:51:28;;;;;;;4.70;1.38;;;;;;;;;;5034674;28;20034;-61
2022/09/20 10:54:19;;;;;;;4.45;1.40;;;;;;;;;;5041631;28;20043;-63
2022/09/20 10:56:55;;;;;;;4.53;1.60;;;;;;;;;;5015524;28;20040;-60
2022/09/20 10:59:50;;;;;;;3.75;1.33;;;;;;;;;;5050081;28;20033;-60
2022/09/20 11:02:33;;;;;;;3.20;1.08;;;;;;;;;;5012031;28;20116;-61
2022/09/20 11:05:36;;;;;;;6.55;1.48;;;;;;;;;;5030413;28;20050;-61
2022/09/20 11:08:21;;;;;;;2.95;1.25;;;;;;;;;;4982829;28;20402;-61
2022/09/20 11:10:54;;;;;;;6.55;2.00;;;;;;;;;;5032990;28;20025;-61
2022/09/20 11:13:26;;;;;;;3.30;1.40;;;;;;;;;;5016797;28;20045;-62
2022/09/20 11:16:04;;;;;;;5.93;1.30;;;;;;;;;;5038872;28;20098;-60
2022/09/20 11:18:43;;;;;;;4.60;1.40;;;;;;;;;;5037287;28;20053;-61
2022/09/20 11:21:19;;;;;;;8.48;1.77;;;;;;;;;;5020074;28;20655;-63
2022/09/20 11:23:55;;;;;;;4.93;1.50;;;;;;;;;;5019850;28;20413;-61
2022/09/20 11:26:52;;;;;;;2.25;1.33;;;;;;;;;;5033738;28;20033;-60
2022/09/20 11:29:41;;;;;;;3.20;1.50;;;;;;;;;;5030007;28;20371;-61
2022/09/20 11:32:52;;;;;;;5.15;1.50;;;;;;;;;;5028330;28;20040;-60
2022/09/20 11:35:33;;;;;;;3.80;1.50;;;;;;;;;;5033534;28;20081;-69
2022/09/20 11:38:23;;;;;;;5.18;1.60;;;;;;;;;;5031670;28;20049;-70
2022/09/20 11:41:05;;;;;;;4.00;1.30;;;;;;;;;;5021175;28;20029;-70
2022/09/20 11:43:32;;;;;;;3.58;1.25;;;;;;;;;;5027208;28;20086;-70
2022/09/20 11:46:01;;;;;;;3.13;1.17;;;;;;;;;;5023283;28;20045;-68
2022/09/20 11:48:37;;;;;;;4.30;1.30;;;;;;;;;;5023136;28;20029;-68
2022/09/20 11:51:34;;;;;;;3.97;1.48;;;;;;;;;;4994788;28;20021;-68
2022/09/20 11:54:15;;;;;;;4.50;1.35;;;;;;;;;;4996985;28;20038;-68
2022/09/20 11:56:52;;;;;;;6.03;1.35;;;;;;;;;;5017459;28;20048;-69
2022/09/20 11:59:41;;;;;;;3.38;1.20;;;;;;;;;;5028462;28;20120;-68
2022/09/20 12:02:35;;;;;;;3.35;1.15;;;;;;;;;;5015383;28;20120;-66
2022/09/20 12:05:04;;;;;;;3.85;1.17;;;;;;;;;;4971889;28;20491;-68
2022/09/20 12:07:42;;;;;;;4.95;1.23;;;;;;;;;;5032976;28;20116;-65
2022/09/20 12:10:32;;;;;;;3.97;1.30;;;;;;;;;;5028282;28;20032;-69
2022/09/20 12:13:04;;;;;;;2.50;1.15;;;;;;;;;;5012164;28;20034;-61
2022/09/20 12:15:38;;;;;;;2.25;1.10;;;;;;;;;;5020984;28;20038;-61
2022/09/20 12:18:07;;;;;;;2.22;0.90;;;;;;;;;;5031816;28;20057;-60
2022/09/20 12:20:37;;;;;;;3.70;1.08;;;;;;;;;;5028931;28;20036;-60
2022/09/20 12:23:39;;;;;;;3.90;0.80;;;;;;;;;;5031859;28;20034;-60
2022/09/20 12:26:20;;;;;;;2.53;0.88;;;;;;;;;;5030142;28;20060;-59
2022/09/20 12:28:48;;;;;;;3.25;0.90;;;;;;;;;;5031754;28;20092;-60
2022/09/20 12:31:24;;;;;;;2.97;1.10;;;;;;;;;;5048668;28;20029;-59
2022/09/20 12:34:09;;;;;;;3.58;1.00;;;;;;;;;;5051978;28;20076;-60
2022/09/20 12:36:42;;;;;;;3.95;1.10;;;;;;;;;;5032502;28;20138;-60
2022/09/20 12:39:09;;;;;;;1.75;1.00;;;;;;;;;;5031340;28;20065;-60
2022/09/20 12:41:50;;;;;;;4.70;1.27;;;;;;;;;;5037463;28;20033;-59
2022/09/20 12:44:27;;;;;;;2.63;0.85;;;;;;;;;;5044129;28;20063;-60
2022/09/20 12:47:01;;;;;;;4.80;1.10;;;;;;;;;;5049789;28;20041;-61
2022/09/20 12:52:55;;;;;;;9.75;1.20;;;;;;;;;;5029799;28;20613;-61
2022/09/20 12:55:50;;;;;;;3.63;1.20;;;;;;;;;;5023445;28;20120;-60
2022/09/20 12:58:18;;;;;;;2.85;1.10;;;;;;;;;;5041099;28;20487;-60
2022/09/20 13:00:58;;;;;;;2.55;0.93;;;;;;;;;;5052040;28;20029;-60
2022/09/20 13:03:30;;;;;;;3.22;1.00;;;;;;;;;;5014403;28;20037;-60
2022/09/20 13:06:05;;;;;;;3.67;1.10;;;;;;;;;;5031262;28;20095;-62
2022/09/20 13:08:59;;;;;;;8.15;1.33;;;;;;;;;;5041021;28;20033;-60
2022/09/20 13:11:51;;;;;;;2.92;1.02;;;;;;;;;;5052014;28;20462;-61
2022/09/20 13:14:30;;;;;;;2.95;1.15;;;;;;;;;;5012253;28;20081;-60
2022/09/20 13:17:17;;;;;;;2.70;1.20;;;;;;;;;;5012219;28;20026;-60
2022/09/20 13:19:45;;;;;;;2.78;1.08;;;;;;;;;;5028504;28;20049;-61
2022/09/20 13:22:17;;;;;;;3.78;1.20;;;;;;;;;;5026700;28;20037;-60
2022/09/20 13:24:47;;;;;;;4.72;1.10;;;;;;;;;;5021260;28;20036;-61
2022/09/20 13:27:21;;;;;;;5.45;1.20;;;;;;;;;;5028432;28;20038;-61
2022/09/20 13:29:46;;;;;;;3.72;1.45;;;;;;;;;;5043887;28;20056;-62
2022/09/20 13:32:29;;;;;;;2.75;1.17;;;;;;;;;;5030355;28;20525;-60
2022/09/20 13:35:07;;;;;;;5.63;1.27;;;;;;;;;;5011414;28;20124;-61
2022/09/20 13:37:33;;;;;;;4.75;1.10;;;;;;;;;;5016995;28;20065;-60
2022/09/20 13:39:59;;;;;;;3.53;1.10;;;;;;;;;;5040852;28;20505;-60
2022/09/20 13:42:28;;;;;;;5.93;1.30;;;;;;;;;;5050824;28;20035;-59
2022/09/20 13:44:57;;;;;;;4.28;1.13;;;;;;;;;;5045567;28;20029;-60
2022/09/20 13:47:22;;;;;;;2.58;1.20;;;;;;;;;;5050702;28;20029;-60
2022/09/20 13:49:49;;;;;;;4.93;1.35;;;;;;;;;;5034317;28;20036;-60
2022/09/20 13:52:33;;;;;;;4.75;1.20;;;;;;;;;;5011453;28;20030;-60
2022/09/20 13:54:58;;;;;;;3.05;1.00;;;;;;;;;;5039654;28;20473;-61
2022/09/20 13:57:27;;;;;;;4.45;1.02;;;;;;;;;;5051219;28;20043;-62
2022/09/20 13:59:53;;;;;;;2.90;0.98;;;;;;;;;;5029774;28;20032;-61
2022/09/20 14:02:22;;;;;;;3.63;1.00;;;;;;;;;;5030321;28;20022;-61
2022/09/20 14:04:49;;;;;;;3.95;1.20;;;;;;;;;;5024311;28;20033;-62
2022/09/20 14:07:16;;;;;;;4.65;1.55;;;;;;;;;;5045520;28;20457;-62
2022/09/20 14:09:42;;;;;;;3.47;1.33;;;;;;;;;;5043980;28;20031;-61
2022/09/20 14:12:11;;;;;;;4.55;1.27;;;;;;;;;;5048798;28;20482;-61
2022/09/20 14:14:37;;;;;;;5.35;1.40;;;;;;;;;;5044334;28;20485;-61
2022/09/20 14:17:06;;;;;;;4.70;1.20;;;;;;;;;;5050803;28;20044;-62
2022/09/20 14:19:36;;;;;;;3.60;1.30;;;;;;;;;;5017595;28;20041;-61
2022/09/20 14:22:05;;;;;;;2.50;1.17;;;;;;;;;;5043876;28;20394;-62
2022/09/20 14:24:34;;;;;;;4.55;1.48;;;;;;;;;;5039042;28;20033;-62
2022/09/20 14:27:15;;;;;;;3.80;1.20;;;;;;;;;;5033384;28;20033;-62
2022/09/20 14:29:44;;;;;;;11.07;1.45;;;;;;;;;;5029166;28;20060;-62
2022/09/20 14:32:15;;;;;;;4.72;1.50;;;;;;;;;;5012581;28;20038;-61
2022/09/20 14:34:42;;;;;;;7.57;2.67;;;;;;;;;;5037000;28;20048;-61
2022/09/20 14:37:21;;;;;;;4.43;1.50;;;;;;;;;;5047816;28;20108;-62
2022/09/20 14:39:48;;;;;;;5.50;1.40;;;;;;;;;;5050480;28;20030;-62
2022/09/20 14:42:26;;;;;;;6.03;1.40;;;;;;;;;;5032611;28;20466;-62
2022/09/20 14:44:52;;;;;;;5.25;1.30;;;;;;;;;;5033837;28;20116;-61
2022/09/20 14:47:36;;;;;;;4.18;1.23;;;;;;;;;;5037532;28;20087;-62
2022/09/20 14:50:02;;;;;;;4.85;1.40;;;;;;;;;;5048157;28;20498;-61
2022/09/20 14:52:28;;;;;;;3.30;1.20;;;;;;;;;;5027897;28;20034;-61
2022/09/20 14:55:27;;;;;;;4.80;1.40;;;;;;;;;;5013653;28;20049;-61
2022/09/20 14:57:57;;;;;;;3.40;1.20;;;;;;;;;;5034803;28;20041;-62
2022/09/20 15:00:23;;;;;;;6.88;2.45;;;;;;;;;;5046543;28;20382;-61
2022/09/20 15:02:49;;;;;;;6.55;3.45;;;;;;;;;;5032335;28;20030;-61
2022/09/20 15:05:24;;;;;;;4.85;1.50;;;;;;;;;;5033867;28;20120;-61
2022/09/20 15:07:49;;;;;;;3.03;1.23;;;;;;;;;;5031117;28;20025;-64
2022/09/20 15:10:15;;;;;;;4.60;1.73;;;;;;;;;;5039558;28;20037;-63
2022/09/20 15:12:43;;;;;;;4.43;1.13;;;;;;;;;;5050620;28;20119;-62
2022/09/20 15:15:13;;;;;;;3.13;1.45;;;;;;;;;;5050353;28;20043;-61
2022/09/20 15:17:41;;;;;;;4.20;1.40;;;;;;;;;;5046297;28;20474;-62
2022/09/20 15:20:20;;;;;;;4.40;1.45;;;;;;;;;;5012264;28;20054;-62
2022/09/20 15:22:49;;;;;;;3.67;1.20;;;;;;;;;;5013307;28;20026;-61
2022/09/20 15:25:17;;;;;;;4.13;1.52;;;;;;;;;;5030731;28;20048;-62
2022/09/20 15:27:46;;;;;;;6.22;1.60;;;;;;;;;;5033796;28;20037;-60
2022/09/20 15:30:15;;;;;;;4.65;1.55;;;;;;;;;;5030455;28;20084;-62
2022/09/20 15:32:42;;;;;;;4.68;1.48;;;;;;;;;;5032802;28;20105;-61
2022/09/20 15:35:08;;;;;;;4.03;1.60;;;;;;;;;;5031370;28;20049;-63
2022/09/20 15:37:33;;;;;;;4.25;1.73;;;;;;;;;;5028911;28;20025;-61
2022/09/20 15:39:59;;;;;;;4.80;1.77;;;;;;;;;;5031214;28;20701;-60
2022/09/20 15:42:24;;;;;;;10.52;2.35;;;;;;;;;;5032636;28;20032;-60
2022/09/20 15:44:52;;;;;;;4.43;1.80;;;;;;;;;;4997593;28;20492;-62